createdAt,value
2023-04-11T00:04:22.164Z,16.10
2023-04-11T00:10:29.089Z,15.60
2023-04-11T00:16:37.612Z,13.33
2023-04-11T00:22:51.108Z,12.60
2023-04-11T00:28:53.978Z,9.93
2023-04-11T00:34:57.094Z,13.03
2023-04-11T00:41:07.368Z,11.90
2023-04-11T00:47:16.101Z,11.43
2023-04-11T00:53:33.613Z,13.77
2023-04-11T00:59:53.019Z,12.57
2023-04-11T01:06:00.750Z,11.73
2023-04-11T01:12:07.209Z,17.20
2023-04-11T01:18:12.808Z,13.20
2023-04-11T01:24:22.297Z,14.17
2023-04-11T01:30:28.642Z,14.93
2023-04-11T01:36:35.330Z,13.00
2023-04-11T01:42:51.640Z,13.27
2023-04-11T01:49:03.414Z,15.43
2023-04-11T02:01:52.395Z,14.47
2023-04-11T02:08:13.382Z,13.33
2023-04-11T02:14:23.387Z,15.40
2023-04-11T02:20:51.352Z,12.43
2023-04-11T02:27:03.393Z,16.43
2023-04-11T02:33:07.825Z,15.00
2023-04-11T02:39:22.993Z,13.90
2023-04-11T02:45:42.727Z,14.87
2023-04-11T02:51:58.474Z,16.33
2023-04-11T02:58:02.940Z,13.70
2023-04-11T03:10:37.722Z,20.67
2023-04-11T03:16:44.543Z,13.53
2023-04-11T03:22:58.088Z,19.43
2023-04-11T03:29:09.580Z,16.80
2023-04-11T03:35:33.589Z,15.47
2023-04-11T03:48:07.478Z,18.87
2023-04-11T03:54:32.116Z,19.93
2023-04-11T04:13:17.560Z,20.27
2023-04-11T04:19:22.846Z,14.20
2023-04-11T04:25:29.443Z,17.13
2023-04-11T04:31:40.765Z,18.93
2023-04-11T04:37:51.924Z,16.37
2023-04-11T04:43:58.557Z,17.37
2023-04-11T04:50:02.292Z,15.90
2023-04-11T04:56:11.906Z,17.10
2023-04-11T05:02:24.149Z,16.93
2023-04-11T05:08:40.886Z,15.13
2023-04-11T05:14:49.231Z,14.43
2023-04-11T05:20:58.404Z,14.27
2023-04-11T05:27:20.725Z,16.60
2023-04-11T05:39:51.953Z,13.90
2023-04-11T05:52:15.530Z,14.07
2023-04-11T05:58:23.166Z,14.30
2023-04-11T06:04:31.092Z,12.60
2023-04-11T06:10:46.001Z,16.87
2023-04-11T06:17:02.096Z,15.33
2023-04-11T06:23:10.961Z,13.27
2023-04-11T06:29:27.833Z,12.87
2023-04-11T06:35:35.880Z,15.23
2023-04-11T06:41:39.685Z,16.43
2023-04-11T06:47:42.106Z,22.90
2023-04-11T06:53:44.608Z,18.90
2023-04-11T06:59:56.483Z,20.20
2023-04-11T07:06:05.508Z,21.93
2023-04-11T07:12:09.889Z,20.60
2023-04-11T07:18:24.107Z,23.23
2023-04-11T07:24:28.791Z,20.03
2023-04-11T07:30:51.239Z,24.03
2023-04-11T07:36:54.056Z,20.77
2023-04-11T07:49:56.390Z,30.40
2023-04-11T07:56:07.856Z,26.03
2023-04-11T08:02:18.456Z,26.67
2023-04-11T08:08:30.050Z,24.73
2023-04-11T08:14:59.416Z,24.50
2023-04-11T08:21:07.448Z,25.63
2023-04-11T08:27:31.789Z,26.30
2023-04-11T08:33:42.802Z,26.03
2023-04-11T08:40:26.980Z,22.80
2023-04-11T08:46:33.746Z,26.17
2023-04-11T08:52:40.515Z,25.33
2023-04-11T08:59:04.872Z,27.37
2023-04-11T09:05:10.804Z,20.47
2023-04-11T09:11:22.134Z,21.27
2023-04-11T09:17:24.933Z,21.20
2023-04-11T09:23:29.668Z,23.33
2023-04-11T09:29:49.596Z,21.97
2023-04-11T09:35:55.173Z,22.90
2023-04-11T09:41:58.592Z,20.03
2023-04-11T09:48:11.897Z,16.50
2023-04-11T09:54:21.635Z,20.90
2023-04-11T10:00:31.115Z,17.50
2023-04-11T10:07:19.945Z,21.23
2023-04-11T10:13:54.700Z,21.23
2023-04-11T10:20:46.969Z,19.50
2023-04-11T10:27:01.590Z,21.47
2023-04-11T10:33:20.193Z,20.37
2023-04-11T10:39:55.709Z,15.00
2023-04-11T10:46:29.351Z,16.27
2023-04-11T10:52:41.318Z,21.60
2023-04-11T10:58:45.834Z,15.40
2023-04-11T11:04:52.352Z,17.57
2023-04-11T11:11:05.367Z,16.67
2023-04-11T11:17:14.542Z,17.07
2023-04-11T11:29:40.922Z,20.23
2023-04-11T11:36:05.627Z,16.63
2023-04-11T11:42:08.962Z,16.40
2023-04-11T11:49:10.399Z,21.30
2023-04-11T11:55:08.750Z,16.53
2023-04-11T12:07:40.522Z,4.60
2023-04-11T12:14:01.688Z,4.50
2023-04-11T12:20:08.655Z,7.20
2023-04-11T12:26:33.188Z,7.17
2023-04-11T12:32:43.213Z,11.30
2023-04-11T12:38:46.109Z,21.80
2023-04-11T12:44:51.506Z,13.77
2023-04-11T12:50:54.093Z,30.63
2023-04-11T12:57:11.186Z,25.43
2023-04-11T13:03:27.398Z,13.97
2023-04-11T13:09:33.630Z,15.73
2023-04-11T13:15:36.043Z,11.70
2023-04-11T13:21:41.467Z,15.20
2023-04-11T13:27:43.950Z,20.10
2023-04-11T13:33:59.537Z,43.03
2023-04-11T13:40:08.922Z,35.27
2023-04-11T13:46:24.488Z,25.57
2023-04-11T13:52:26.955Z,18.87
2023-04-11T13:58:29.462Z,13.23
2023-04-11T14:04:34.053Z,11.97
2023-04-11T14:10:36.366Z,15.43
2023-04-11T14:16:38.860Z,16.70
2023-04-11T14:22:42.325Z,15.37
2023-04-11T14:28:44.769Z,16.37
2023-04-11T14:34:48.244Z,17.57
2023-04-11T14:40:50.723Z,13.57
2023-04-11T14:46:53.144Z,13.67
2023-04-11T14:52:55.639Z,14.10
2023-04-11T14:58:58.084Z,18.10
2023-04-11T15:05:00.520Z,13.90
2023-04-11T15:11:04.048Z,13.60
2023-04-11T15:17:08.501Z,15.63
2023-04-11T15:23:11.961Z,14.60
2023-04-11T15:29:16.440Z,15.37
2023-04-11T15:35:23.244Z,16.47
2023-04-11T15:41:25.356Z,17.67
2023-04-11T15:47:29.867Z,26.07
2023-04-11T15:53:32.336Z,19.90
2023-04-11T15:59:34.779Z,20.23
2023-04-11T16:05:41.294Z,16.97
2023-04-11T16:11:46.749Z,14.73
2023-04-11T16:17:50.258Z,20.77
2023-04-11T16:23:57.949Z,18.37
2023-04-11T16:30:02.173Z,16.73
2023-04-11T16:36:04.660Z,16.83
2023-04-11T16:42:07.089Z,16.07
2023-04-11T16:48:34.978Z,19.50
2023-04-11T16:54:37.125Z,17.63
2023-04-11T17:00:39.562Z,18.43
2023-04-11T17:06:42.028Z,19.87
2023-04-11T17:12:44.546Z,16.37
2023-04-11T17:18:47.048Z,31.73
2023-04-11T17:24:50.475Z,16.00
2023-04-11T17:31:00.284Z,18.20
2023-04-11T17:37:05.493Z,15.43
2023-04-11T17:43:08.896Z,13.40
2023-04-11T17:49:11.345Z,18.43
2023-04-11T17:55:18.887Z,19.53
2023-04-11T18:01:21.396Z,15.90
2023-04-11T18:07:29.530Z,15.93
2023-04-11T18:13:32.265Z,18.87
2023-04-11T18:19:46.836Z,13.60
2023-04-11T18:25:49.308Z,15.50
2023-04-11T18:31:52.962Z,17.63
2023-04-11T18:37:56.308Z,17.23
2023-04-11T18:44:02.088Z,20.47
2023-04-11T18:50:06.241Z,16.97
2023-04-11T18:56:09.618Z,20.27
2023-04-11T19:02:15.200Z,15.40
2023-04-11T19:08:17.589Z,15.50
2023-04-11T19:14:23.432Z,17.20
2023-04-11T19:20:32.453Z,18.27
2023-04-11T19:26:36.043Z,14.47
2023-04-11T19:32:44.634Z,17.87
2023-04-11T19:38:49.049Z,13.37
2023-04-11T19:44:52.488Z,13.50
2023-04-11T19:50:55.329Z,12.73
2023-04-11T19:56:58.411Z,12.67
2023-04-11T20:03:00.970Z,11.83
2023-04-11T20:09:03.260Z,11.23
2023-04-11T20:15:05.930Z,14.67
2023-04-11T20:21:12.215Z,15.47
2023-04-11T20:27:14.713Z,13.30
2023-04-11T20:33:18.146Z,11.30
2023-04-11T20:39:20.584Z,10.20
2023-04-11T20:45:23.111Z,12.47
2023-04-11T20:51:25.537Z,12.50
2023-04-11T20:57:31.071Z,15.83
2023-04-11T21:03:38.773Z,13.13
2023-04-11T21:09:42.040Z,13.30
2023-04-11T21:15:44.424Z,12.20
2023-04-11T21:21:46.908Z,18.00
2023-04-11T21:27:50.403Z,12.30
2023-04-11T21:33:52.859Z,12.13
2023-04-11T21:39:56.399Z,11.13
2023-04-11T21:45:58.751Z,10.00
2023-04-11T21:52:01.240Z,11.00
2023-04-11T21:58:03.666Z,10.77
2023-04-11T22:04:09.351Z,12.87
2023-04-11T22:10:13.619Z,10.80
2023-04-11T22:16:19.125Z,11.33
2023-04-11T22:22:26.545Z,10.47
2023-04-11T22:28:33.824Z,10.23
2023-04-11T22:34:36.519Z,10.50
2023-04-11T22:40:41.017Z,10.87
2023-04-11T22:47:00.581Z,7.60
2023-04-11T22:53:10.598Z,12.43
2023-04-11T22:59:14.942Z,12.57
2023-04-11T23:05:17.985Z,10.03
2023-04-11T23:11:22.453Z,10.60
2023-04-11T23:17:25.952Z,9.57
2023-04-11T23:23:28.289Z,11.50
2023-04-11T23:29:36.860Z,13.10
2023-04-11T23:35:39.301Z,13.20
2023-04-11T23:41:41.839Z,13.03
2023-04-11T23:47:46.348Z,11.67
2023-04-11T23:53:48.792Z,11.07
2023-04-11T23:59:53.784Z,8.93
